createdAt,value
2023-01-19T05:29:58.508Z,1.60
2023-01-19T05:34:01.633Z,1.27
2023-01-19T05:38:04.391Z,2.10
2023-01-19T05:42:07.633Z,1.50
2023-01-19T05:46:10.259Z,1.60
2023-01-19T05:50:13.196Z,1.85
2023-01-19T05:54:15.863Z,1.97
2023-01-19T05:58:18.946Z,1.90
2023-01-19T06:02:28.630Z,1.73
2023-01-19T06:06:32.001Z,2.07
2023-01-19T06:10:34.806Z,1.60
2023-01-19T06:14:38.219Z,1.77
2023-01-19T06:18:41.309Z,1.90
2023-01-19T06:22:44.302Z,1.93
2023-01-19T06:26:47.154Z,2.03
2023-01-19T06:30:54.264Z,1.58
2023-01-19T06:34:57.205Z,2.33
2023-01-19T06:39:03.654Z,1.70
2023-01-19T06:43:07.502Z,1.42
2023-01-19T06:47:15.928Z,2.00
2023-01-19T06:51:18.969Z,1.80
2023-01-19T06:55:22.212Z,2.47
2023-01-19T06:59:27.936Z,1.98
2023-01-19T07:03:31.672Z,2.27
2023-01-19T07:07:34.331Z,2.70
2023-01-19T07:11:37.303Z,2.05
2023-01-19T07:15:40.122Z,1.93
2023-01-19T07:19:43.196Z,1.73
2023-01-19T07:23:49.391Z,1.75
2023-01-19T07:27:52.620Z,2.97
2023-01-19T07:31:55.389Z,1.92
2023-01-19T07:35:58.681Z,2.67
2023-01-19T07:40:01.586Z,2.60
2023-01-19T07:44:05.482Z,1.83
2023-01-19T07:48:08.320Z,2.70
2023-01-19T07:52:13.348Z,1.80
2023-01-19T07:56:16.936Z,2.50
2023-01-19T08:00:22.375Z,1.80
2023-01-19T08:04:30.630Z,1.70
2023-01-19T08:08:34.119Z,2.00
2023-01-19T08:12:37.528Z,1.87
2023-01-19T08:16:40.345Z,2.03
2023-01-19T08:20:43.662Z,2.37
2023-01-19T08:24:46.944Z,2.33
2023-01-19T08:28:51.345Z,2.47
2023-01-19T08:32:58.391Z,2.03
2023-01-19T08:37:01.907Z,2.27
2023-01-19T08:41:04.835Z,2.10
2023-01-19T08:45:09.429Z,3.78
2023-01-19T08:49:18.201Z,4.40
2023-01-19T08:53:44.216Z,3.10
2023-01-19T08:57:51.040Z,2.83
2023-01-19T09:01:59.980Z,3.58
2023-01-19T09:06:05.652Z,2.47
2023-01-19T09:10:10.633Z,2.60
2023-01-19T09:14:13.695Z,3.50
2023-01-19T09:18:20.043Z,2.50
2023-01-19T09:22:23.193Z,2.50
2023-01-19T09:26:26.379Z,2.80
2023-01-19T09:30:29.473Z,2.70
2023-01-19T09:34:32.762Z,2.62
2023-01-19T09:38:35.674Z,3.17
2023-01-19T09:42:51.983Z,3.37
2023-01-19T09:46:54.570Z,2.73
2023-01-19T09:51:01.314Z,3.25
2023-01-19T09:55:04.176Z,3.92
2023-01-19T09:59:24.773Z,3.93
2023-01-19T10:03:27.558Z,3.83
2023-01-19T10:07:36.872Z,4.00
2023-01-19T10:11:53.168Z,4.63
2023-01-19T10:16:14.919Z,3.78
2023-01-19T10:20:26.656Z,4.12
2023-01-19T10:24:33.494Z,5.95
2023-01-19T10:28:36.763Z,6.60
2023-01-19T10:32:41.878Z,4.03
2023-01-19T10:36:49.776Z,4.87
2023-01-19T10:41:03.729Z,5.40
2023-01-19T10:45:40.896Z,6.10
2023-01-19T10:50:01.895Z,5.22
2023-01-19T10:54:36.296Z,6.77
2023-01-19T10:58:55.101Z,3.92
2023-01-19T11:03:34.693Z,3.47
2023-01-19T11:07:46.524Z,3.30
2023-01-19T11:12:20.288Z,5.40
2023-01-19T11:16:32.576Z,5.45
2023-01-19T11:20:55.614Z,4.95
2023-01-19T11:25:05.725Z,8.47
2023-01-19T11:29:26.850Z,8.10
2023-01-19T11:33:52.980Z,8.27
2023-01-19T11:38:13.826Z,4.83
2023-01-19T11:42:18.605Z,7.22
2023-01-19T11:46:35.279Z,5.20
2023-01-19T11:50:45.677Z,7.20
2023-01-19T11:55:18.221Z,5.77
2023-01-19T11:59:27.160Z,5.53
2023-01-19T12:04:19.312Z,4.72
2023-01-19T12:09:16.595Z,6.17
2023-01-19T12:13:25.452Z,4.95
2023-01-19T12:17:51.342Z,10.15
2023-01-19T12:22:00.202Z,7.20
2023-01-19T12:26:33.507Z,6.90
2023-01-19T12:30:38.661Z,9.25
2023-01-19T12:34:56.784Z,11.95
2023-01-19T12:39:21.824Z,6.13
2023-01-19T12:43:25.608Z,5.65
2023-01-19T12:47:28.403Z,5.72
2023-01-19T12:51:32.200Z,7.47
2023-01-19T12:55:39.375Z,11.50
2023-01-19T12:59:44.099Z,11.32
2023-01-19T13:04:02.612Z,12.40
2023-01-19T13:08:06.215Z,10.45
2023-01-19T13:12:15.028Z,8.02
2023-01-19T13:16:21.355Z,13.13
2023-01-19T13:20:31.315Z,7.73
2023-01-19T13:25:08.344Z,9.40
2023-01-19T13:29:16.560Z,9.13
2023-01-19T13:33:24.385Z,12.70
2023-01-19T13:37:41.694Z,9.80
2023-01-19T13:41:45.445Z,10.95
2023-01-19T13:45:53.346Z,9.57
2023-01-19T13:49:57.814Z,8.65
2023-01-19T13:54:03.892Z,7.85
2023-01-19T13:58:22.576Z,8.60
2023-01-19T14:02:25.405Z,8.23
2023-01-19T14:06:45.599Z,8.75
2023-01-19T14:11:02.350Z,6.80
2023-01-19T14:15:13.136Z,7.00
2023-01-19T14:19:15.898Z,10.05
2023-01-19T14:23:38.699Z,12.98
2023-01-19T14:27:41.442Z,8.80
2023-01-19T14:31:53.280Z,8.95
2023-01-19T14:35:55.956Z,10.73
2023-01-19T14:40:08.313Z,12.07
2023-01-19T14:44:11.728Z,6.00
2023-01-19T14:48:19.501Z,10.18
2023-01-19T14:52:23.623Z,13.75
2023-01-19T14:56:28.981Z,15.00
2023-01-19T15:00:31.984Z,10.85
2023-01-19T15:04:35.053Z,13.70
2023-01-19T15:08:39.520Z,12.50
2023-01-19T15:12:42.662Z,10.18
2023-01-19T15:16:45.574Z,8.48
2023-01-19T15:20:48.648Z,10.32
2023-01-19T15:24:51.362Z,10.57
2023-01-19T15:28:55.959Z,12.60
2023-01-19T15:32:59.220Z,10.70
2023-01-19T15:37:02.174Z,17.20
2023-01-19T15:41:09.535Z,14.35
2023-01-19T15:45:25.814Z,14.32
2023-01-19T15:49:30.974Z,14.27
